Natal, Brazil
Current Conditions -  °F | °C
As of 11:00 AM on Thursday 29 Jan 2015 (Local Time) from SBNT Reporting Station
Scattered Clouds Scattered Clouds  
Wind Chill: 86°   Ceiling: Unl
Heat Index: 90°   Visibility: 6mi
Dew Point: 70°   Wind: 15mph
Humidity: 58%   Direction: 120°ESE
Pressure: 29.88"   Gusts: NA
Location:  5.8°S, 35.22°W
Report Text: SBNT 291400Z 12013KT 9999 SCT027 30/21 Q1012
Loading
Personal Weather Stations






























Interactive Weather Map New forecast layout! Learn more

10-Day Weather Forecast

Advertisements
Track Severe Weather on mobile